CEG2 weather

CLOSED Acme Airport
Acme, Alberta, Canada

Public forecast

Using degrees Celsius for public forecast. Weather courtesy of forecast.io.

Closest aviation weather report (METAR) to Acme Airport

Closest report is Calgary International Airport, 28.0 nm (51.8 km) SW. Retrieved 2020/04/03 10:00 UTC (43 minutes ago):

CYYC 031000Z 15009G15KT 3SM -SN SCT011 OVC017 M09/M12 A2997 RMK SF3SC5 SLP223

Closest aviation forecast (TAF) to Acme Airport

Closest forecast is Calgary International Airport, 28.0 nm (51.8 km) SW. Retrieved 2020/04/03 09:42 UTC (1 hour ago):

TAF CYYC 030838Z 0309/0406 15010KT 6SM -SG SCT010 OVC020 TEMPO 0309/0317 5SM -SN OVC010 BECMG 0313/0315 10010KT FM031700 07006KT P6SM SCT020 OVC040 TEMPO 0317/0322 5SM -SN BKN020 FM032200 02012KT P6SM VCSH SCT020 OVC030 TEMPO 0322/0401 3SM -SHSN VV020 FM040100 36012KT 1SM -SN VV010 TEMPO 0402/0405 3SM -SN VV020 FM040500 32010KT 3SM -SN VV020 TEMPO 0405/0406 6SM -SN BKN025 RMK NXT FCST BY 031200Z